Main page
METAR-TAF:

METAR-TAF

Airports :

Albacete, Spain

Albacete Airport

latitude: 38-57N, longitude: 001-51W, elevation: 702 m

Current weather observation

The report was made 41 minutes ago, at 16:00 UTC
Wind 6 kt from the West/Northwest, varying between West/Southwest and North/Northwest
Temperature 33°C
Humidity 21%
Pressure 1015 hPa
Visibility 10 km or more
no clouds below 1500 m and no cumulonimbus

METAR: LEAB 221600Z 29006KT 250V330 CAVOK 33/08 Q1015 NOSIG

Time: 18:41 (16:41 UTC)

Forecast

The report was made 2 hours and 41 minutes ago, at 14:00 UTC
Forecast valid from 22 at 15 UTC to 22 at 24 UTC
Wind 5 kt from variable directions
Visibility 10 km or more
no clouds below 1500 m and no cumulonimbus
Probability 40% :
Temporary
from 22 at 15 UTC to 22 at 19 UTC
Wind 10 kt from the West/Southwest
Temporary
from 22 at 19 UTC to 22 at 24 UTC
Wind 10 kt from the South/Southeast

TAF: LEAB 221400Z 2215/2224 VRB05KT CAVOK PROB40 TEMPO 2215/2219 25010KT TEMPO 2219/2224 16010KT

Weather observations and forecasts of more than 4000 airports (METAR and TAF reports).

The available stations are represented by yellow and red dots on the map.

Hover mouse over dot to see the name of the station.

Then click to see weather observations and forecasts.

To change the map : click on the green buttons with a black cross to zoom in, on the green button with a dash to zoom out, or on the green arrows for adjacent maps.


METAR-TAF: